createdAt,value
2023-04-27T00:01:32.008Z,100412.69
2023-04-27T00:04:06.957Z,100416.23
2023-04-27T00:06:39.339Z,100420.05
2023-04-27T00:09:12.270Z,100419.16
2023-04-27T00:11:45.042Z,100413.52
2023-04-27T00:14:17.270Z,100418.05
2023-04-27T00:16:49.670Z,100419.21
2023-04-27T00:19:22.886Z,100415.76
2023-04-27T00:21:55.276Z,100414.11
2023-04-27T00:24:27.772Z,100417.09
2023-04-27T00:27:00.297Z,100420.33
2023-04-27T00:29:32.656Z,100422.91
2023-04-27T00:32:05.068Z,100422.70
2023-04-27T00:34:37.623Z,100426.35
2023-04-27T00:37:10.162Z,100427.27
2023-04-27T00:39:42.780Z,100428.05
2023-04-27T00:42:17.516Z,100426.52
2023-04-27T00:44:50.172Z,100430.21
2023-04-27T00:47:22.475Z,100429.06
2023-04-27T00:49:55.433Z,100433.27
2023-04-27T00:52:28.604Z,100437.42
2023-04-27T00:55:04.184Z,100437.84
2023-04-27T00:57:37.391Z,100440.97
2023-04-27T01:00:11.860Z,100438.68
2023-04-27T01:02:44.869Z,100435.28
2023-04-27T01:05:17.396Z,100437.45
2023-04-27T01:07:49.763Z,100439.95
2023-04-27T01:10:22.074Z,100443.43
2023-04-27T01:12:54.371Z,100443.23
2023-04-27T01:15:26.967Z,100444.05
2023-04-27T01:18:04.073Z,100451.52
2023-04-27T01:20:36.484Z,100454.64
2023-04-27T01:23:09.099Z,100458.94
2023-04-27T01:25:41.505Z,100462.90
2023-04-27T01:28:13.750Z,100463.54
2023-04-27T01:30:46.143Z,100465.13
2023-04-27T01:33:18.506Z,100467.80
2023-04-27T01:35:51.061Z,100472.94
2023-04-27T01:38:24.521Z,100471.06
2023-04-27T01:41:02.094Z,100475.95
2023-04-27T01:43:34.645Z,100473.02
2023-04-27T01:46:11.531Z,100475.20
2023-04-27T01:48:44.480Z,100475.46
2023-04-27T01:51:16.962Z,100472.61
2023-04-27T01:53:49.179Z,100472.09
2023-04-27T01:56:21.519Z,100474.84
2023-04-27T01:58:55.920Z,100474.36
2023-04-27T02:01:28.459Z,100476.23
2023-04-27T02:04:01.096Z,100474.50
2023-04-27T02:06:33.678Z,100474.92
2023-04-27T02:09:05.867Z,100478.39
2023-04-27T02:11:38.272Z,100477.44
2023-04-27T02:14:10.615Z,100477.71
2023-04-27T02:16:43.063Z,100479.59
2023-04-27T02:19:15.846Z,100487.33
2023-04-27T02:21:48.468Z,100485.82
2023-04-27T02:24:21.332Z,100491.48
2023-04-27T02:26:53.944Z,100495.48
2023-04-27T02:29:30.863Z,100499.89
2023-04-27T02:32:03.582Z,100498.88
2023-04-27T02:34:35.985Z,100502.64
2023-04-27T02:37:08.406Z,100505.53
2023-04-27T02:39:40.717Z,100504.80
2023-04-27T02:42:12.913Z,100503.49
2023-04-27T02:44:45.178Z,100506.41
2023-04-27T02:47:17.537Z,100501.71
2023-04-27T02:49:49.782Z,100511.23
2023-04-27T02:52:22.891Z,100516.66
2023-04-27T02:54:55.282Z,100520.15
2023-04-27T02:57:27.536Z,100522.95
2023-04-27T03:00:00.239Z,100527.43
2023-04-27T03:02:32.853Z,100535.95
2023-04-27T03:05:06.088Z,100539.97
2023-04-27T03:07:38.424Z,100544.91
2023-04-27T03:10:11.892Z,100550.50
2023-04-27T03:12:44.139Z,100554.94
2023-04-27T03:15:16.517Z,100558.93
2023-04-27T03:17:48.857Z,100560.88
2023-04-27T03:20:21.177Z,100561.77
2023-04-27T03:22:53.430Z,100557.03
2023-04-27T03:25:26.199Z,100561.24
2023-04-27T03:27:58.516Z,100561.74
2023-04-27T03:30:30.971Z,100567.81
2023-04-27T03:33:03.975Z,100565.36
2023-04-27T03:35:36.389Z,100571.38
2023-04-27T03:38:09.208Z,100574.98
2023-04-27T03:40:41.473Z,100576.75
2023-04-27T03:43:13.806Z,100582.00
2023-04-27T03:45:46.318Z,100586.46
2023-04-27T03:48:19.182Z,100588.14
2023-04-27T03:50:51.762Z,100592.66
2023-04-27T03:53:24.117Z,100597.23
2023-04-27T03:55:56.408Z,100592.27
2023-04-27T03:58:28.670Z,100597.76
2023-04-27T04:01:01.385Z,100606.09
2023-04-27T04:03:33.789Z,100603.56
2023-04-27T04:06:06.652Z,100602.97
2023-04-27T04:08:38.967Z,100609.69
2023-04-27T04:11:11.365Z,100619.67
2023-04-27T04:13:44.294Z,100617.96
2023-04-27T04:16:16.628Z,100622.15
2023-04-27T04:18:49.101Z,100620.90
2023-04-27T04:21:21.485Z,100626.77
2023-04-27T04:23:53.797Z,100630.61
2023-04-27T04:26:27.432Z,100630.48
2023-04-27T04:28:59.744Z,100630.17
2023-04-27T04:31:33.859Z,100635.72
2023-04-27T04:34:06.288Z,100638.73
2023-04-27T04:36:38.580Z,100640.61
2023-04-27T04:39:12.893Z,100637.87
2023-04-27T04:41:45.520Z,100642.54
2023-04-27T04:44:17.797Z,100642.54
2023-04-27T04:46:50.333Z,100642.15
2023-04-27T04:49:22.615Z,100643.30
2023-04-27T04:51:54.885Z,100647.63
2023-04-27T04:54:27.835Z,100649.88
2023-04-27T04:57:01.336Z,100651.04
2023-04-27T04:59:36.957Z,100658.10
2023-04-27T05:02:10.858Z,100658.73
2023-04-27T05:04:43.304Z,100656.69
2023-04-27T05:07:20.199Z,100658.79
2023-04-27T05:09:55.953Z,100660.30
2023-04-27T05:12:28.445Z,100660.20
2023-04-27T05:15:00.859Z,100664.77
2023-04-27T05:17:33.314Z,100667.33
2023-04-27T05:20:07.968Z,100668.86
2023-04-27T05:22:40.871Z,100674.48
2023-04-27T05:25:13.581Z,100677.41
2023-04-27T05:27:46.080Z,100673.23
2023-04-27T05:30:18.362Z,100678.48
2023-04-27T05:32:50.743Z,100678.14
2023-04-27T05:35:23.194Z,100677.65
2023-04-27T05:37:55.516Z,100676.70
2023-04-27T05:40:27.928Z,100677.11
2023-04-27T05:43:03.534Z,100681.91
2023-04-27T05:45:40.202Z,100681.02
2023-04-27T05:48:12.493Z,100682.55
2023-04-27T05:50:44.925Z,100682.23
2023-04-27T05:53:17.445Z,100681.41
2023-04-27T05:55:49.799Z,100686.52
2023-04-27T05:58:22.016Z,100682.77
2023-04-27T06:00:54.973Z,100685.53
2023-04-27T06:03:27.452Z,100685.48
2023-04-27T06:06:01.332Z,100685.96
2023-04-27T06:08:37.476Z,100685.24
2023-04-27T06:11:09.993Z,100684.59
2023-04-27T06:13:42.379Z,100685.87
2023-04-27T06:16:16.224Z,100688.52
2023-04-27T06:18:48.735Z,100684.77
2023-04-27T06:21:21.346Z,100684.89
2023-04-27T06:23:55.329Z,100683.34
2023-04-27T06:26:28.294Z,100684.45
2023-04-27T06:29:01.054Z,100686.13
2023-04-27T06:31:35.050Z,100682.21
2023-04-27T06:34:07.519Z,100679.70
2023-04-27T06:36:40.515Z,100682.70
2023-04-27T06:39:13.067Z,100681.99
2023-04-27T06:41:45.599Z,100684.05
2023-04-27T06:44:17.936Z,100682.89
2023-04-27T06:46:50.415Z,100686.45
2023-04-27T06:49:22.795Z,100682.86
2023-04-27T06:51:55.161Z,100677.34
2023-04-27T06:54:28.160Z,100682.50
2023-04-27T06:57:00.745Z,100682.56
2023-04-27T06:59:33.513Z,100685.17
2023-04-27T07:02:06.248Z,100684.43
2023-04-27T07:04:39.214Z,100685.45
2023-04-27T07:07:11.641Z,100684.33
2023-04-27T07:09:46.673Z,100685.42
2023-04-27T07:12:19.150Z,100686.20
2023-04-27T07:14:51.893Z,100688.23
2023-04-27T07:17:24.148Z,100689.13
2023-04-27T07:19:56.622Z,100686.24
2023-04-27T07:22:29.115Z,100677.84
2023-04-27T07:25:01.620Z,100690.42
2023-04-27T07:27:35.930Z,100690.82
2023-04-27T07:30:10.455Z,100693.30
2023-04-27T07:32:44.250Z,100694.33
2023-04-27T07:35:17.361Z,100692.08
2023-04-27T07:37:51.488Z,100692.10
2023-04-27T07:40:24.346Z,100695.14
2023-04-27T07:42:58.430Z,100695.91
2023-04-27T07:45:33.082Z,100691.97
2023-04-27T07:48:05.689Z,100697.73
2023-04-27T07:50:38.311Z,100700.48
2023-04-27T07:53:11.589Z,100696.37
2023-04-27T07:55:44.625Z,100700.90
2023-04-27T07:58:17.298Z,100704.36
2023-04-27T08:00:49.770Z,100704.83
2023-04-27T08:03:23.136Z,100706.14
2023-04-27T08:05:55.786Z,100705.85
2023-04-27T08:08:30.232Z,100706.71
2023-04-27T08:11:02.562Z,100708.70
2023-04-27T08:13:36.877Z,100713.21
2023-04-27T08:16:09.774Z,100708.45
2023-04-27T08:18:42.238Z,100706.55
2023-04-27T08:21:14.537Z,100706.59
2023-04-27T08:23:47.235Z,100704.11
2023-04-27T08:26:19.770Z,100705.05
2023-04-27T08:28:52.072Z,100703.58
2023-04-27T08:31:24.509Z,100707.02
2023-04-27T08:33:58.580Z,100706.13
2023-04-27T08:36:33.472Z,100711.02
2023-04-27T08:39:07.900Z,100706.40
2023-04-27T08:41:44.927Z,100703.70
2023-04-27T08:44:17.375Z,100706.02
2023-04-27T08:46:51.039Z,100704.00
2023-04-27T08:49:23.442Z,100703.52
2023-04-27T08:51:55.738Z,100702.20
2023-04-27T08:54:28.449Z,100703.88
2023-04-27T08:57:03.532Z,100701.85
2023-04-27T08:59:36.364Z,100700.59
2023-04-27T09:02:08.823Z,100696.94
2023-04-27T09:04:42.058Z,100694.43
2023-04-27T09:07:16.206Z,100692.10
2023-04-27T09:09:49.733Z,100689.30
2023-04-27T09:12:23.204Z,100689.41
2023-04-27T09:15:03.821Z,100689.16
2023-04-27T09:17:39.056Z,100688.17
2023-04-27T09:20:13.713Z,100687.23
2023-04-27T09:22:51.291Z,100685.86
2023-04-27T09:25:28.853Z,100689.46
2023-04-27T09:28:02.492Z,100684.02
2023-04-27T09:30:37.176Z,100685.66
2023-04-27T09:33:09.378Z,100685.23
2023-04-27T09:35:43.354Z,100686.73
2023-04-27T09:38:17.083Z,100679.66
2023-04-27T09:40:50.760Z,100680.66
2023-04-27T09:43:24.158Z,100673.88
2023-04-27T09:45:57.230Z,100664.98
2023-04-27T09:48:30.123Z,100666.71
2023-04-27T09:51:02.844Z,100658.66
2023-04-27T09:53:42.616Z,100654.73
2023-04-27T09:56:31.890Z,100652.99
2023-04-27T09:59:19.356Z,100651.96
2023-04-27T10:01:56.201Z,100651.46
2023-04-27T10:05:01.262Z,100644.20
2023-04-27T10:07:36.504Z,100638.09
2023-04-27T10:10:16.884Z,100637.20
2023-04-27T10:12:59.831Z,100632.79
2023-04-27T10:15:32.460Z,100631.69
2023-04-27T10:18:08.806Z,100623.95
2023-04-27T10:20:41.980Z,100627.34
2023-04-27T10:23:23.642Z,100624.16
2023-04-27T10:25:57.380Z,100622.35
2023-04-27T10:28:39.503Z,100622.68
2023-04-27T10:31:16.145Z,100626.30
2023-04-27T10:33:48.791Z,100620.36
2023-04-27T10:36:21.053Z,100622.77
2023-04-27T10:38:59.105Z,100621.61
2023-04-27T10:41:36.838Z,100620.69
2023-04-27T10:44:19.754Z,100623.02
2023-04-27T10:46:56.189Z,100621.41
2023-04-27T10:49:30.259Z,100617.70
2023-04-27T10:52:05.111Z,100618.56
2023-04-27T10:54:39.644Z,100618.07
2023-04-27T10:57:13.092Z,100620.59
2023-04-27T10:59:55.583Z,100617.41
2023-04-27T11:02:31.425Z,100618.40
2023-04-27T11:05:07.790Z,100624.03
2023-04-27T11:07:40.245Z,100617.96
2023-04-27T11:10:18.514Z,100623.11
2023-04-27T11:12:50.951Z,100612.92
2023-04-27T11:15:23.673Z,100614.36
2023-04-27T11:18:07.605Z,100616.40
2023-04-27T11:20:40.194Z,100614.14
2023-04-27T11:23:13.007Z,100606.17
2023-04-27T11:25:45.601Z,100606.00
2023-04-27T11:28:22.138Z,100611.73
2023-04-27T11:31:00.617Z,100611.98
2023-04-27T11:33:33.395Z,100608.23
2023-04-27T11:36:16.846Z,100607.66
2023-04-27T11:38:49.287Z,100602.13
2023-04-27T11:41:23.358Z,100609.10
2023-04-27T11:43:55.661Z,100605.98
2023-04-27T11:46:28.099Z,100607.33
2023-04-27T11:49:06.004Z,100607.06
2023-04-27T11:51:39.302Z,100603.02
2023-04-27T11:54:13.388Z,100601.94
2023-04-27T11:56:46.514Z,100606.63
2023-04-27T11:59:26.519Z,100602.61
2023-04-27T12:02:00.827Z,100602.20
2023-04-27T12:04:33.906Z,100604.23
2023-04-27T12:07:06.238Z,100598.56
2023-04-27T12:09:38.568Z,100601.99
2023-04-27T12:12:11.470Z,100598.86
2023-04-27T12:14:43.876Z,100600.60
2023-04-27T12:17:16.288Z,100600.98
2023-04-27T12:19:49.115Z,100595.87
2023-04-27T12:22:21.464Z,100595.99
2023-04-27T12:24:53.929Z,100587.65
2023-04-27T12:27:27.091Z,100594.48
2023-04-27T12:30:00.664Z,100590.98
2023-04-27T12:32:33.125Z,100588.65
2023-04-27T12:35:06.398Z,100592.96
2023-04-27T12:37:38.738Z,100589.84
2023-04-27T12:40:13.126Z,100589.62
2023-04-27T12:42:45.736Z,100584.20
2023-04-27T12:45:18.075Z,100587.05
2023-04-27T12:48:01.737Z,100586.52
2023-04-27T12:50:38.136Z,100588.25
2023-04-27T12:53:10.470Z,100588.91
2023-04-27T12:55:42.677Z,100589.79
2023-04-27T12:58:15.095Z,100588.45
2023-04-27T13:00:47.731Z,100591.38
2023-04-27T13:03:23.217Z,100590.54
2023-04-27T13:05:54.343Z,100592.44
2023-04-27T13:08:26.652Z,100597.25
2023-04-27T13:10:59.288Z,100602.27
2023-04-27T13:13:32.018Z,100604.09
2023-04-27T13:16:04.519Z,100605.92
2023-04-27T13:18:37.130Z,100603.98
2023-04-27T13:21:11.952Z,100606.18
2023-04-27T13:23:44.378Z,100602.17
2023-04-27T13:26:17.282Z,100603.02
2023-04-27T13:28:49.945Z,100600.10
2023-04-27T13:31:22.364Z,100597.43
2023-04-27T13:33:54.823Z,100597.88
2023-04-27T13:36:27.309Z,100599.27
2023-04-27T13:38:59.501Z,100596.23
2023-04-27T13:41:32.787Z,100593.58
2023-04-27T13:44:05.581Z,100593.65
2023-04-27T13:46:38.014Z,100598.92
2023-04-27T13:49:10.840Z,100595.48
2023-04-27T13:51:43.291Z,100598.17
2023-04-27T13:54:15.764Z,100602.65
2023-04-27T13:56:48.567Z,100604.14
2023-04-27T13:59:21.851Z,100601.21
2023-04-27T14:01:54.265Z,100604.34
2023-04-27T14:04:26.660Z,100605.91
2023-04-27T14:06:59.232Z,100611.48
2023-04-27T14:09:31.703Z,100620.62
2023-04-27T14:12:04.519Z,100625.65
2023-04-27T14:14:39.909Z,100625.55
2023-04-27T14:17:12.146Z,100637.60
2023-04-27T14:19:44.381Z,100636.68
2023-04-27T14:22:16.715Z,100632.64
2023-04-27T14:24:52.114Z,100634.09
2023-04-27T14:27:24.752Z,100629.61
2023-04-27T14:29:58.356Z,100626.84
2023-04-27T14:32:31.314Z,100626.70
2023-04-27T14:35:04.075Z,100620.47
2023-04-27T14:37:36.698Z,100621.60
2023-04-27T14:40:11.340Z,100624.27
2023-04-27T14:42:43.753Z,100628.09
2023-04-27T14:45:18.363Z,100626.20
2023-04-27T14:47:50.763Z,100625.20
2023-04-27T14:50:23.191Z,100626.17
2023-04-27T14:52:58.710Z,100626.67
2023-04-27T14:55:31.880Z,100624.48
2023-04-27T14:58:04.360Z,100624.93
2023-04-27T15:00:36.730Z,100625.83
2023-04-27T15:03:09.414Z,100623.09
2023-04-27T15:05:42.558Z,100620.52
2023-04-27T15:08:15.028Z,100615.79
2023-04-27T15:10:47.932Z,100615.36
2023-04-27T15:13:20.150Z,100615.60
2023-04-27T15:15:57.069Z,100620.16
2023-04-27T15:18:29.767Z,100619.88
2023-04-27T15:21:02.550Z,100619.55
2023-04-27T15:23:37.289Z,100619.80
2023-04-27T15:26:09.885Z,100619.24
2023-04-27T15:28:42.183Z,100625.89
2023-04-27T15:31:14.849Z,100627.90
2023-04-27T15:33:47.264Z,100627.94
2023-04-27T15:36:19.612Z,100632.48
2023-04-27T15:38:52.770Z,100637.55
2023-04-27T15:41:25.122Z,100638.82
2023-04-27T15:43:57.486Z,100646.64
2023-04-27T15:46:29.933Z,100649.83
2023-04-27T15:49:02.209Z,100653.23
2023-04-27T15:51:34.609Z,100659.31
2023-04-27T15:54:07.213Z,100662.38
2023-04-27T15:56:39.628Z,100658.55
2023-04-27T15:59:12.241Z,100658.36
2023-04-27T16:01:45.055Z,100659.56
2023-04-27T16:04:17.601Z,100667.39
2023-04-27T16:06:50.124Z,100668.64
2023-04-27T16:09:22.463Z,100673.46
2023-04-27T16:11:55.101Z,100672.13
2023-04-27T16:14:27.486Z,100676.35
2023-04-27T16:17:03.552Z,100682.20
2023-04-27T16:19:36.105Z,100686.45
2023-04-27T16:22:08.535Z,100691.78
2023-04-27T16:24:41.314Z,100696.16
2023-04-27T16:27:13.803Z,100697.30
2023-04-27T16:29:47.509Z,100703.46
2023-04-27T16:32:20.623Z,100709.88
2023-04-27T16:34:53.346Z,100712.45
2023-04-27T16:37:25.725Z,100715.02
2023-04-27T16:40:02.056Z,100714.95
2023-04-27T16:42:34.802Z,100720.45
2023-04-27T16:45:10.511Z,100724.88
2023-04-27T16:47:43.483Z,100735.48
2023-04-27T16:50:16.158Z,100729.24
2023-04-27T16:52:50.500Z,100731.47
2023-04-27T16:55:23.038Z,100731.67
2023-04-27T16:57:55.301Z,100731.22
2023-04-27T17:00:27.731Z,100735.06
2023-04-27T17:03:00.186Z,100736.33
2023-04-27T17:05:33.846Z,100735.23
2023-04-27T17:08:06.474Z,100735.23
2023-04-27T17:10:38.893Z,100740.52
2023-04-27T17:13:12.534Z,100738.14
2023-04-27T17:15:44.826Z,100738.38
2023-04-27T17:18:17.161Z,100734.77
2023-04-27T17:20:49.504Z,100735.76
2023-04-27T17:23:21.923Z,100739.88
2023-04-27T17:25:54.290Z,100744.84
2023-04-27T17:28:27.962Z,100750.86
2023-04-27T17:31:00.368Z,100754.41
2023-04-27T17:33:32.789Z,100756.55
2023-04-27T17:36:06.201Z,100765.39
2023-04-27T17:38:41.764Z,100770.20
2023-04-27T17:41:14.097Z,100777.31
2023-04-27T17:43:46.594Z,100777.29
2023-04-27T17:46:19.005Z,100785.65
2023-04-27T17:48:51.590Z,100785.21
2023-04-27T17:51:23.918Z,100793.43
2023-04-27T17:53:56.406Z,100800.19
2023-04-27T17:56:28.717Z,100799.84
2023-04-27T17:59:01.118Z,100798.11
2023-04-27T18:01:33.762Z,100803.96
2023-04-27T18:04:08.218Z,100804.60
2023-04-27T18:06:40.615Z,100808.17
2023-04-27T18:09:13.200Z,100811.51
2023-04-27T18:11:46.064Z,100815.13
2023-04-27T18:14:18.371Z,100812.59
2023-04-27T18:16:50.861Z,100819.51
2023-04-27T18:19:23.587Z,100822.51
2023-04-27T18:21:56.388Z,100826.43
2023-04-27T18:24:28.716Z,100830.43
2023-04-27T18:27:01.108Z,100831.38
2023-04-27T18:29:35.071Z,100831.86
2023-04-27T18:32:08.212Z,100839.14
2023-04-27T18:34:40.724Z,100842.45
2023-04-27T18:37:13.002Z,100848.30
2023-04-27T18:39:45.484Z,100846.67
2023-04-27T18:42:19.070Z,100847.90
2023-04-27T18:44:54.784Z,100854.73
2023-04-27T18:47:27.409Z,100860.06
2023-04-27T18:49:59.705Z,100854.93
2023-04-27T18:52:31.941Z,100854.23
2023-04-27T18:55:05.017Z,100854.29
2023-04-27T18:57:37.497Z,100863.46
2023-04-27T19:00:13.151Z,100865.04
2023-04-27T19:02:45.623Z,100869.61
2023-04-27T19:05:18.245Z,100876.77
2023-04-27T19:07:50.633Z,100882.38
2023-04-27T19:10:23.750Z,100893.52
2023-04-27T19:12:57.141Z,100899.66
2023-04-27T19:15:29.648Z,100904.27
2023-04-27T19:18:11.089Z,100912.81
2023-04-27T19:20:46.970Z,100921.38
2023-04-27T19:23:20.372Z,100928.52
2023-04-27T19:25:55.116Z,100929.55
2023-04-27T19:28:29.787Z,100938.58
2023-04-27T19:31:02.347Z,100935.02
2023-04-27T19:33:34.827Z,100948.10
2023-04-27T19:36:07.466Z,100958.48
2023-04-27T19:38:40.209Z,100954.45
2023-04-27T19:41:14.143Z,100961.91
2023-04-27T19:43:46.416Z,100967.95
2023-04-27T19:46:18.783Z,100972.40
2023-04-27T19:48:51.123Z,100976.85
2023-04-27T19:51:23.528Z,100981.41
2023-04-27T19:53:55.813Z,100984.44
2023-04-27T19:56:28.092Z,100988.54
2023-04-27T19:59:00.458Z,100995.65
2023-04-27T20:01:32.833Z,100999.19
2023-04-27T20:04:05.333Z,100999.11
2023-04-27T20:06:37.940Z,101000.55
2023-04-27T20:09:11.204Z,101003.27
2023-04-27T20:11:43.521Z,101001.83
2023-04-27T20:14:16.082Z,101002.50
2023-04-27T20:16:48.968Z,101005.61
2023-04-27T20:19:23.379Z,101001.16
2023-04-27T20:21:55.648Z,100997.54
2023-04-27T20:24:29.029Z,100997.05
2023-04-27T20:27:02.918Z,100992.38
2023-04-27T20:29:35.611Z,100994.09
2023-04-27T20:32:08.129Z,100994.59
2023-04-27T20:34:40.459Z,100994.20
2023-04-27T20:37:12.825Z,100994.58
2023-04-27T20:39:45.262Z,100989.23
2023-04-27T20:42:18.530Z,100989.77
2023-04-27T20:44:51.105Z,100984.02
2023-04-27T20:47:23.340Z,100987.75
2023-04-27T20:49:55.683Z,100992.54
2023-04-27T20:52:31.160Z,100995.72
2023-04-27T20:55:05.814Z,100995.73
2023-04-27T20:57:38.165Z,100997.61
2023-04-27T21:00:13.030Z,100997.80
2023-04-27T21:02:45.460Z,100997.91
2023-04-27T21:05:17.751Z,101000.70
2023-04-27T21:07:50.123Z,101010.62
2023-04-27T21:10:22.615Z,101012.04
2023-04-27T21:12:55.039Z,101011.42
2023-04-27T21:15:27.658Z,101010.98
2023-04-27T21:18:00.748Z,101015.46
2023-04-27T21:20:33.320Z,101008.66
2023-04-27T21:23:05.843Z,101013.92
2023-04-27T21:25:38.201Z,101017.45
2023-04-27T21:28:10.547Z,101017.88
2023-04-27T21:30:43.161Z,101023.86
2023-04-27T21:33:15.653Z,101022.23
2023-04-27T21:35:48.028Z,101017.69
2023-04-27T21:38:20.426Z,101023.85
2023-04-27T21:40:52.799Z,101025.23
2023-04-27T21:43:25.076Z,101027.88
2023-04-27T21:45:57.461Z,101027.58
2023-04-27T21:48:29.764Z,101033.23
2023-04-27T21:51:02.252Z,101034.92
2023-04-27T21:53:34.660Z,101036.80
2023-04-27T21:56:07.535Z,101037.58
2023-04-27T21:58:39.790Z,101038.63
2023-04-27T22:01:13.212Z,101043.52
2023-04-27T22:03:45.794Z,101041.93
2023-04-27T22:06:18.367Z,101048.05
2023-04-27T22:08:50.820Z,101051.27
2023-04-27T22:11:23.077Z,101050.23
2023-04-27T22:13:56.354Z,101055.04
2023-04-27T22:16:30.316Z,101055.87
2023-04-27T22:19:02.628Z,101054.38
2023-04-27T22:21:34.905Z,101058.74
2023-04-27T22:24:07.761Z,101057.77
2023-04-27T22:26:40.098Z,101058.18
2023-04-27T22:29:12.518Z,101061.18
2023-04-27T22:31:45.894Z,101062.93
2023-04-27T22:34:18.462Z,101061.43
2023-04-27T22:36:51.278Z,101064.26
2023-04-27T22:39:23.712Z,101065.36
2023-04-27T22:41:55.969Z,101061.52
2023-04-27T22:44:28.200Z,101061.59
2023-04-27T22:47:02.600Z,101066.85
2023-04-27T22:49:36.946Z,101072.08
2023-04-27T22:52:10.637Z,101069.83
2023-04-27T22:54:43.079Z,101073.23
2023-04-27T22:57:15.479Z,101072.48
2023-04-27T22:59:51.645Z,101077.35
2023-04-27T23:02:24.187Z,101074.98
2023-04-27T23:04:56.606Z,101073.77
2023-04-27T23:07:29.260Z,101072.83
2023-04-27T23:10:03.019Z,101073.02
2023-04-27T23:12:35.485Z,101077.05
2023-04-27T23:15:09.634Z,101075.27
2023-04-27T23:17:42.204Z,101072.06
2023-04-27T23:20:27.514Z,101071.13
2023-04-27T23:22:59.112Z,101070.89
2023-04-27T23:25:32.926Z,101067.85
2023-04-27T23:28:05.160Z,101070.12
2023-04-27T23:30:37.679Z,101073.16
2023-04-27T23:33:10.085Z,101072.06
2023-04-27T23:35:43.294Z,101071.65
2023-04-27T23:38:15.755Z,101073.19
2023-04-27T23:40:48.205Z,101070.53
2023-04-27T23:43:20.620Z,101070.96
2023-04-27T23:45:54.069Z,101068.20
2023-04-27T23:48:26.348Z,101069.88
2023-04-27T23:51:03.678Z,101070.34
2023-04-27T23:53:35.973Z,101072.73
2023-04-27T23:56:16.445Z,101072.30
2023-04-27T23:58:48.890Z,101070.80
